Time;durP1;ratioP1;P1;durP2;ratioP2;P2;SDS_P1;SDS_P2;PMS_P1;PMS_P2;Temp;Humidity;BMP_temperature;BMP_pressure;BME280_temperature;BME280_humidity;BME280_pressure;Samples;Min_cycle;Max_cycle;Signal;HPM_P1;HPM_P2
2021/01/15 00:00:56;;;;;;;0.83;0.60;;;21.40;49.60;;;;;;5016524;28;20415;-65
2021/01/15 00:03:21;;;;;;;0.80;0.60;;;21.40;49.70;;;;;;5016475;28;20458;-65
2021/01/15 00:05:47;;;;;;;0.87;0.63;;;21.40;49.60;;;;;;5016514;28;20173;-65
2021/01/15 00:08:13;;;;;;;0.77;0.50;;;21.40;49.70;;;;;;5016323;28;20233;-65
2021/01/15 00:10:38;;;;;;;1.03;0.93;;;21.40;49.70;;;;;;5016107;28;20182;-65
2021/01/15 00:13:04;;;;;;;0.80;0.57;;;21.30;49.60;;;;;;5015850;28;20219;-65
2021/01/15 00:15:29;;;;;;;0.80;0.60;;;21.30;49.70;;;;;;5016308;28;20176;-64
2021/01/15 00:17:55;;;;;;;0.70;0.50;;;21.30;49.70;;;;;;5015983;28;20651;-65
2021/01/15 00:20:21;;;;;;;0.80;0.60;;;21.30;49.70;;;;;;5015933;28;20189;-65
2021/01/15 00:22:46;;;;;;;0.70;0.50;;;21.30;49.70;;;;;;5015786;28;20204;-65
2021/01/15 00:25:12;;;;;;;1.00;0.60;;;21.30;49.70;;;;;;5015862;28;20180;-65
2021/01/15 00:27:38;;;;;;;0.77;0.60;;;21.30;49.70;;;;;;5016107;28;20645;-65
2021/01/15 00:30:06;;;;;;;0.80;0.60;;;21.30;49.70;;;;;;5014482;28;20180;-66
2021/01/15 00:32:32;;;;;;;0.80;0.60;;;21.30;49.70;;;;;;5015811;28;20451;-65
2021/01/15 00:34:57;;;;;;;0.80;0.50;;;21.30;49.70;;;;;;5015710;28;20777;-65
2021/01/15 00:37:23;;;;;;;0.70;0.50;;;21.30;49.60;;;;;;5015808;28;20164;-65
2021/01/15 00:39:49;;;;;;;0.80;0.57;;;21.30;49.60;;;;;;5015619;28;20639;-65
2021/01/15 00:42:14;;;;;;;0.80;0.50;;;21.30;49.60;;;;;;5015381;28;20203;-65
2021/01/15 00:44:45;;;;;;;0.80;0.60;;;21.30;49.70;;;;;;5015764;28;20548;-65
2021/01/15 00:47:11;;;;;;;1.00;0.63;;;21.30;49.70;;;;;;5014298;28;20169;-65
2021/01/15 00:49:37;;;;;;;0.80;0.60;;;21.30;50.20;;;;;;5015731;28;20776;-65
2021/01/15 00:52:03;;;;;;;0.80;0.60;;;21.30;49.60;;;;;;5015312;28;20443;-65
2021/01/15 00:54:28;;;;;;;0.80;0.60;;;21.30;49.70;;;;;;5014094;28;20592;-65
2021/01/15 00:56:58;;;;;;;0.80;0.50;;;21.30;49.60;;;;;;5015542;28;20172;-65
2021/01/15 00:59:24;;;;;;;0.70;0.50;;;21.30;49.60;;;;;;5015222;28;20195;-65
2021/01/15 01:01:49;;;;;;;0.90;0.70;;;21.30;49.70;;;;;;5015375;28;20948;-65
2021/01/15 01:04:15;;;;;;;0.73;0.60;;;21.30;49.60;;;;;;5015052;28;20204;-65
2021/01/15 01:06:41;;;;;;;1.00;0.60;;;21.30;49.70;;;;;;5015098;28;20255;-65
2021/01/15 01:09:07;;;;;;;0.80;0.60;;;21.30;50.20;;;;;;5015084;28;20172;-65
2021/01/15 01:11:33;;;;;;;0.80;0.60;;;21.30;49.70;;;;;;5016281;28;20295;-65
2021/01/15 01:13:59;;;;;;;0.70;0.50;;;21.30;49.70;;;;;;5015010;28;20439;-65
2021/01/15 01:16:25;;;;;;;0.80;0.60;;;21.30;49.70;;;;;;5015205;28;20618;-65
2021/01/15 01:18:51;;;;;;;0.80;0.53;;;21.30;49.70;;;;;;5013542;28;20799;-65
2021/01/15 01:21:17;;;;;;;1.00;0.60;;;21.30;49.70;;;;;;5014724;28;20910;-65
2021/01/15 01:23:43;;;;;;;0.80;0.60;;;21.30;49.70;;;;;;5014984;28;20487;-65
2021/01/15 01:26:09;;;;;;;0.80;0.60;;;21.30;49.70;;;;;;5014486;28;20630;-65
2021/01/15 01:28:35;;;;;;;0.90;0.60;;;21.30;49.70;;;;;;5014641;28;20180;-65
2021/01/15 01:31:01;;;;;;;0.70;0.50;;;21.30;49.80;;;;;;5014645;28;20403;-65
2021/01/15 01:33:27;;;;;;;0.80;0.50;;;21.30;49.80;;;;;;5014562;28;20666;-65
2021/01/15 01:35:53;;;;;;;0.80;0.60;;;21.20;49.70;;;;;;5014806;28;20403;-65
2021/01/15 01:38:19;;;;;;;1.20;0.60;;;21.20;49.70;;;;;;5014494;28;20180;-65
2021/01/15 01:40:45;;;;;;;0.80;0.60;;;21.20;50.30;;;;;;5014461;28;20259;-65
2021/01/15 01:43:11;;;;;;;0.80;0.60;;;21.20;49.80;;;;;;5014275;28;20881;-65
2021/01/15 01:45:36;;;;;;;0.80;0.60;;;21.20;49.80;;;;;;5014365;28;20263;-65
2021/01/15 01:48:03;;;;;;;1.10;0.83;;;21.20;49.80;;;;;;5014264;28;20192;-65
2021/01/15 01:50:30;;;;;;;0.80;0.60;;;21.20;49.80;;;;;;5014327;28;20228;-65
2021/01/15 01:52:56;;;;;;;0.90;0.60;;;21.20;49.80;;;;;;5014183;28;20474;-65
2021/01/15 01:55:22;;;;;;;0.83;0.60;;;21.20;49.80;;;;;;5014432;28;20418;-65
2021/01/15 01:57:48;;;;;;;0.70;0.50;;;21.20;49.80;;;;;;5012898;28;20820;-65
2021/01/15 02:00:15;;;;;;;0.90;0.60;;;21.20;49.80;;;;;;5014406;28;20177;-65
2021/01/15 02:02:41;;;;;;;0.97;0.70;;;21.20;49.80;;;;;;5014017;28;20451;-65
2021/01/15 02:05:07;;;;;;;0.90;0.60;;;21.20;49.80;;;;;;5014039;28;20422;-65
2021/01/15 02:07:34;;;;;;;0.90;0.50;;;21.10;49.70;;;;;;5013942;28;20176;-65
2021/01/15 02:10:10;;;;;;;0.80;0.60;;;21.20;49.80;;;;;;5012685;28;20424;-65
2021/01/15 02:13:01;;;;;;;0.80;0.60;;;21.20;49.90;;;;;;5013818;28;20544;-65
2021/01/15 02:15:40;;;;;;;0.80;0.60;;;21.20;49.80;;;;;;5012582;28;20420;-65
2021/01/15 02:18:32;;;;;;;0.80;0.60;;;21.20;49.80;;;;;;5013810;28;20422;-65
2021/01/15 02:21:16;;;;;;;0.83;0.57;;;21.20;49.80;;;;;;5013735;28;20395;-65
2021/01/15 02:23:44;;;;;;;0.80;0.60;;;21.10;49.70;;;;;;5012443;28;20454;-65
2021/01/15 02:26:48;;;;;;;0.83;0.60;;;21.10;49.70;;;;;;5013696;28;20494;-65
2021/01/15 02:29:19;;;;;;;0.90;0.50;;;21.20;49.80;;;;;;5013026;28;20431;-65
2021/01/15 02:31:45;;;;;;;0.90;0.60;;;21.10;49.80;;;;;;5013569;28;20470;-65
2021/01/15 02:34:36;;;;;;;0.80;0.60;;;21.10;49.70;;;;;;5013609;28;20423;-65
2021/01/15 02:37:17;;;;;;;0.80;0.50;;;21.20;49.80;;;;;;5012762;28;20195;-64
2021/01/15 02:39:59;;;;;;;0.70;0.50;;;21.10;49.80;;;;;;5013566;28;20392;-65
2021/01/15 02:42:26;;;;;;;0.80;0.60;;;21.10;49.90;;;;;;5013256;28;20459;-65
2021/01/15 02:44:53;;;;;;;0.80;0.60;;;21.10;49.90;;;;;;5013498;28;20439;-65
2021/01/15 02:47:23;;;;;;;0.90;0.60;;;21.10;49.90;;;;;;5012891;28;20462;-65
2021/01/15 02:49:51;;;;;;;0.90;0.60;;;21.10;49.80;;;;;;5013490;28;20420;-65
2021/01/15 02:52:18;;;;;;;0.80;0.60;;;21.10;49.80;;;;;;5013279;28;20439;-65
2021/01/15 02:54:44;;;;;;;1.10;0.77;;;21.10;49.80;;;;;;5012083;28;20419;-64
2021/01/15 02:57:09;;;;;;;0.87;0.60;;;21.10;49.80;;;;;;5013529;28;20465;-65
2021/01/15 02:59:35;;;;;;;0.80;0.60;;;21.10;49.80;;;;;;5013359;28;20587;-65
2021/01/15 03:02:21;;;;;;;0.70;0.50;;;21.10;49.80;;;;;;5013270;28;20230;-65
2021/01/15 03:05:06;;;;;;;1.30;0.70;;;21.10;49.80;;;;;;5013539;28;20199;-65
2021/01/15 03:07:31;;;;;;;0.80;0.60;;;21.00;49.80;;;;;;5013303;28;20764;-65
2021/01/15 03:10:01;;;;;;;0.90;0.60;;;21.00;49.80;;;;;;5013220;28;20414;-65
2021/01/15 03:12:28;;;;;;;0.93;0.70;;;21.00;49.80;;;;;;5013035;28;20219;-65
2021/01/15 03:14:55;;;;;;;0.70;0.50;;;21.00;49.80;;;;;;5013232;28;20436;-65
2021/01/15 03:17:33;;;;;;;1.00;0.60;;;21.00;49.80;;;;;;5013496;28;20415;-65
2021/01/15 03:19:59;;;;;;;0.80;0.60;;;21.10;49.90;;;;;;5013913;28;20423;-65
2021/01/15 03:22:26;;;;;;;0.80;0.60;;;21.00;49.80;;;;;;5011685;28;20462;-65
2021/01/15 03:24:56;;;;;;;1.00;0.73;;;21.00;49.80;;;;;;5013011;28;20470;-65
2021/01/15 03:27:23;;;;;;;0.80;0.57;;;21.10;49.80;;;;;;5013369;28;20772;-65
2021/01/15 03:29:49;;;;;;;0.80;0.50;;;21.10;49.80;;;;;;5013254;28;20438;-65
2021/01/15 03:32:16;;;;;;;0.80;0.60;;;21.10;49.80;;;;;;5012940;28;20435;-65
2021/01/15 03:34:42;;;;;;;0.70;0.50;;;21.10;49.70;;;;;;5013002;28;20894;-65
2021/01/15 03:37:07;;;;;;;0.83;0.67;;;21.10;49.70;;;;;;5012974;28;20408;-65
2021/01/15 03:39:34;;;;;;;0.80;0.50;;;21.10;49.80;;;;;;5012941;28;20180;-65
2021/01/15 03:42:00;;;;;;;0.80;0.60;;;21.10;49.70;;;;;;5012886;28;20665;-65
2021/01/15 03:44:26;;;;;;;0.90;0.70;;;21.10;49.70;;;;;;5012830;28;20490;-66
2021/01/15 03:46:53;;;;;;;0.90;0.70;;;21.10;50.00;;;;;;5012833;28;20447;-65
2021/01/15 03:49:18;;;;;;;0.80;0.60;;;21.10;49.70;;;;;;5015477;28;20705;-65
2021/01/15 03:51:44;;;;;;;0.80;0.60;;;21.10;49.70;;;;;;5016453;28;20466;-65
2021/01/15 03:54:10;;;;;;;0.90;0.60;;;21.10;49.70;;;;;;5016452;28;20181;-65
2021/01/15 03:56:35;;;;;;;0.77;0.53;;;21.10;49.60;;;;;;5016436;28;20172;-64
2021/01/15 03:59:01;;;;;;;0.80;0.60;;;21.10;49.70;;;;;;5016511;28;20206;-64
2021/01/15 04:01:26;;;;;;;0.90;0.60;;;21.10;49.60;;;;;;5016308;28;20200;-63
2021/01/15 04:03:52;;;;;;;0.80;0.60;;;21.10;49.70;;;;;;5016215;28;20560;-62
2021/01/15 04:06:24;;;;;;;0.80;0.60;;;21.10;49.70;;;;;;5016225;28;20176;-64
2021/01/15 04:08:50;;;;;;;0.97;0.70;;;21.10;49.80;;;;;;5016196;28;20172;-64
2021/01/15 04:11:16;;;;;;;0.80;0.50;;;21.00;49.70;;;;;;5015923;28;20501;-64
2021/01/15 04:13:41;;;;;;;0.70;0.53;;;21.10;49.70;;;;;;5016147;28;20169;-64
2021/01/15 04:16:07;;;;;;;0.90;0.70;;;21.10;49.70;;;;;;5016145;28;20585;-66
2021/01/15 04:18:33;;;;;;;0.80;0.70;;;21.00;49.70;;;;;;5014807;28;20664;-66
2021/01/15 04:21:05;;;;;;;0.80;0.50;;;21.00;49.70;;;;;;5015940;28;20177;-66
2021/01/15 04:23:31;;;;;;;0.80;0.60;;;21.00;49.70;;;;;;5014878;28;20658;-66
2021/01/15 04:25:56;;;;;;;0.90;0.70;;;21.00;49.70;;;;;;5015920;28;20783;-66
2021/01/15 04:28:22;;;;;;;0.80;0.50;;;21.00;49.70;;;;;;5016107;28;20412;-66
2021/01/15 04:30:48;;;;;;;0.80;0.70;;;21.00;49.70;;;;;;5016108;28;20172;-66
2021/01/15 04:33:13;;;;;;;0.83;0.63;;;21.00;49.70;;;;;;5015764;28;20670;-66
2021/01/15 04:35:39;;;;;;;0.80;0.60;;;21.00;49.80;;;;;;5015883;28;20203;-66
2021/01/15 04:38:04;;;;;;;0.80;0.60;;;21.00;49.80;;;;;;5015631;28;20265;-66
2021/01/15 04:40:30;;;;;;;0.70;0.50;;;21.00;49.70;;;;;;5015937;28;20173;-66
2021/01/15 04:43:00;;;;;;;0.80;0.60;;;21.00;49.70;;;;;;5015485;28;20208;-65
2021/01/15 04:45:27;;;;;;;0.90;0.50;;;21.00;49.70;;;;;;5015540;28;20168;-66
2021/01/15 04:47:54;;;;;;;0.90;0.63;;;21.00;49.70;;;;;;5015458;28;20465;-66
2021/01/15 04:50:20;;;;;;;0.83;0.60;;;21.00;49.80;;;;;;5015718;28;20882;-66
2021/01/15 04:52:51;;;;;;;0.87;0.60;;;21.00;49.80;;;;;;5014030;28;20458;-66
2021/01/15 04:55:23;;;;;;;0.80;0.60;;;21.00;49.80;;;;;;5015577;28;20241;-66
2021/01/15 04:57:51;;;;;;;0.80;0.60;;;21.00;49.80;;;;;;5015378;28;20478;-66
2021/01/15 05:00:25;;;;;;;0.90;0.60;;;21.00;49.80;;;;;;5014325;28;20438;-66
2021/01/15 05:02:51;;;;;;;0.90;0.60;;;20.90;49.70;;;;;;5015089;28;20493;-67
2021/01/15 05:05:24;;;;;;;0.80;0.50;;;20.90;49.80;;;;;;5015140;28;20412;-66
2021/01/15 05:08:04;;;;;;;0.80;0.70;;;20.90;49.80;;;;;;5014187;28;20410;-66
2021/01/15 05:10:35;;;;;;;0.80;0.60;;;20.90;49.80;;;;;;5015281;28;20760;-67
2021/01/15 05:13:06;;;;;;;1.03;0.57;;;20.90;49.80;;;;;;5014844;28;20446;-66
2021/01/15 05:15:32;;;;;;;0.87;0.60;;;20.90;49.80;;;;;;5014959;28;20478;-66
2021/01/15 05:18:00;;;;;;;0.90;0.70;;;20.90;49.80;;;;;;5014908;28;20503;-65
2021/01/15 05:20:28;;;;;;;0.90;0.60;;;20.90;49.80;;;;;;5014860;28;20183;-66
2021/01/15 05:22:55;;;;;;;1.00;0.70;;;20.90;49.80;;;;;;5014726;28;20561;-66
2021/01/15 05:25:21;;;;;;;0.90;0.60;;;20.90;49.80;;;;;;5013578;28;20416;-66
2021/01/15 05:27:47;;;;;;;1.10;0.60;;;20.90;49.80;;;;;;5014661;28;20414;-66
2021/01/15 05:30:21;;;;;;;1.20;0.70;;;20.90;49.80;;;;;;5014617;28;20187;-66
2021/01/15 05:32:49;;;;;;;0.90;0.60;;;20.80;49.80;;;;;;5014728;28;20434;-66
2021/01/15 05:35:15;;;;;;;0.83;0.60;;;20.90;49.80;;;;;;5014584;28;20411;-65
2021/01/15 05:37:41;;;;;;;0.80;0.50;;;20.90;49.80;;;;;;5014451;28;20422;-66
2021/01/15 05:40:08;;;;;;;0.93;0.60;;;20.90;49.70;;;;;;5014754;28;20776;-66
2021/01/15 05:42:51;;;;;;;0.80;0.50;;;20.90;49.70;;;;;;5014612;28;20532;-65
2021/01/15 05:45:17;;;;;;;0.90;0.60;;;20.90;49.60;;;;;;5014447;28;20894;-66
2021/01/15 05:47:46;;;;;;;0.90;0.80;;;20.90;49.70;;;;;;5013117;28;20451;-66
2021/01/15 05:50:13;;;;;;;0.70;0.50;;;21.00;49.70;;;;;;5014547;28;20169;-66
2021/01/15 05:52:59;;;;;;;0.80;0.60;;;20.90;50.20;;;;;;5014454;28;20432;-66
2021/01/15 05:55:28;;;;;;;0.70;0.60;;;21.00;49.60;;;;;;5014268;28;20424;-66
2021/01/15 05:57:53;;;;;;;0.80;0.60;;;21.00;49.60;;;;;;5014077;28;20942;-66
2021/01/15 06:00:25;;;;;;;0.80;0.60;;;21.00;49.70;;;;;;5014168;28;20473;-65
2021/01/15 06:02:52;;;;;;;0.90;0.63;;;21.00;49.60;;;;;;5014011;28;20192;-66
2021/01/15 06:05:22;;;;;;;0.90;0.60;;;21.00;49.60;;;;;;5014022;28;20503;-66
2021/01/15 06:07:58;;;;;;;0.80;0.60;;;21.00;49.50;;;;;;5013994;28;20782;-66
2021/01/15 06:10:28;;;;;;;0.90;0.60;;;21.10;49.60;;;;;;5014000;28;20912;-66
2021/01/15 06:12:54;;;;;;;0.80;0.60;;;21.10;49.60;;;;;;5013755;28;20458;-66
2021/01/15 06:15:20;;;;;;;0.80;0.60;;;21.10;49.60;;;;;;5013890;28;20419;-66
2021/01/15 06:17:50;;;;;;;0.80;0.60;;;21.10;49.50;;;;;;5013834;28;20172;-66
2021/01/15 06:20:20;;;;;;;0.80;0.60;;;21.10;49.50;;;;;;5014621;28;20499;-66
2021/01/15 06:22:51;;;;;;;0.80;0.70;;;21.10;49.50;;;;;;5013698;28;20451;-65
2021/01/15 06:25:36;;;;;;;0.80;0.53;;;21.10;49.50;;;;;;5012514;28;20531;-65
2021/01/15 06:28:04;;;;;;;0.80;0.60;;;21.10;49.50;;;;;;5013954;28;20399;-65
2021/01/15 06:30:35;;;;;;;1.03;0.70;;;21.10;49.60;;;;;;5013582;28;20403;-66
2021/01/15 06:33:12;;;;;;;0.80;0.60;;;21.10;49.50;;;;;;5013544;28;20466;-69
2021/01/15 06:35:46;;;;;;;0.80;0.60;;;21.10;49.50;;;;;;5013835;28;20406;-68
2021/01/15 06:38:17;;;;;;;0.77;0.57;;;21.10;49.50;;;;;;5013481;28;20920;-64
2021/01/15 06:40:47;;;;;;;0.70;0.50;;;21.10;49.50;;;;;;5012270;28;20495;-66
2021/01/15 06:43:19;;;;;;;1.00;0.70;;;21.10;49.40;;;;;;5013365;28;20462;-66
2021/01/15 06:45:50;;;;;;;0.97;0.80;;;21.10;49.40;;;;;;5013478;28;20461;-67
2021/01/15 06:48:21;;;;;;;0.90;0.70;;;21.10;49.40;;;;;;5013542;28;20446;-69
2021/01/15 06:50:48;;;;;;;0.90;0.70;;;21.10;49.30;;;;;;5013477;28;20764;-66
2021/01/15 06:53:19;;;;;;;0.90;0.70;;;21.10;49.30;;;;;;5013267;28;20423;-67
2021/01/15 06:55:49;;;;;;;0.90;0.70;;;21.10;49.40;;;;;;5013623;28;20419;-67
2021/01/15 06:58:23;;;;;;;0.90;0.60;;;21.10;49.40;;;;;;5013958;28;20450;-66
2021/01/15 07:01:10;;;;;;;0.90;0.80;;;21.10;49.40;;;;;;5013348;28;20408;-66
2021/01/15 07:04:17;;;;;;;0.90;0.70;;;21.20;49.30;;;;;;5012018;28;20447;-68
2021/01/15 07:06:50;;;;;;;1.00;0.80;;;21.20;49.10;;;;;;5012036;28;20447;-67
2021/01/15 07:09:17;;;;;;;1.03;0.77;;;21.20;49.10;;;;;;5012240;28;20935;-67
2021/01/15 07:11:43;;;;;;;0.90;0.60;;;21.30;49.20;;;;;;5013223;28;20481;-68
2021/01/15 07:14:09;;;;;;;0.80;0.60;;;21.30;49.20;;;;;;5013493;28;20822;-67
2021/01/15 07:16:38;;;;;;;0.90;0.67;;;21.30;49.10;;;;;;5013273;28;20176;-68
2021/01/15 07:19:15;;;;;;;0.90;0.70;;;21.40;49.20;;;;;;5011777;28;20196;-68
2021/01/15 07:22:02;;;;;;;0.80;0.60;;;21.40;49.20;;;;;;5013253;28;20538;-68
2021/01/15 07:24:32;;;;;;;1.10;0.60;;;21.40;49.20;;;;;;5016393;28;20522;-66
2021/01/15 07:27:02;;;;;;;0.90;0.70;;;21.50;49.20;;;;;;5017054;28;20407;-66
2021/01/15 07:29:30;;;;;;;0.80;0.60;;;21.50;49.10;;;;;;5016969;28;20411;-67
2021/01/15 07:32:01;;;;;;;0.90;0.70;;;21.50;49.10;;;;;;5016871;28;20482;-66
2021/01/15 07:34:28;;;;;;;1.00;0.80;;;21.50;49.10;;;;;;5015753;28;20450;-67
2021/01/15 07:36:53;;;;;;;0.90;0.60;;;21.50;49.00;;;;;;5016803;28;20489;-67
2021/01/15 07:39:24;;;;;;;0.80;0.60;;;21.60;49.00;;;;;;5017020;28;20423;-68
2021/01/15 07:41:54;;;;;;;0.90;0.70;;;21.60;49.00;;;;;;5016702;28;20192;-67
2021/01/15 07:44:25;;;;;;;1.00;0.80;;;21.60;49.00;;;;;;5016798;28;20925;-67
2021/01/15 07:47:00;;;;;;;1.03;0.77;;;21.60;49.00;;;;;;5016832;28;20439;-68
2021/01/15 07:49:46;;;;;;;2.93;0.70;;;21.70;49.00;;;;;;5016631;28;20901;-68
2021/01/15 07:52:12;;;;;;;1.10;0.90;;;21.70;49.00;;;;;;5016478;28;20427;-68
2021/01/15 07:54:50;;;;;;;0.83;0.63;;;21.60;49.00;;;;;;5016568;28;20447;-69
2021/01/15 07:57:19;;;;;;;1.53;0.87;;;21.70;49.00;;;;;;5016626;28;20419;-66
2021/01/15 07:59:45;;;;;;;1.27;0.87;;;21.70;49.00;;;;;;5016289;28;20431;-67
2021/01/15 08:02:15;;;;;;;1.07;0.87;;;21.70;49.00;;;;;;5016643;28;20953;-66
2021/01/15 08:04:40;;;;;;;1.20;0.90;;;21.70;48.90;;;;;;5016445;28;20909;-68
2021/01/15 08:07:15;;;;;;;1.10;0.80;;;21.70;48.90;;;;;;5015006;28;20411;-67
2021/01/15 08:09:42;;;;;;;1.00;0.70;;;21.70;48.90;;;;;;5016256;28;20168;-67
2021/01/15 08:12:09;;;;;;;1.50;0.90;;;21.80;48.90;;;;;;5015998;28;20497;-67
2021/01/15 08:14:34;;;;;;;1.00;0.80;;;21.80;49.00;;;;;;5016384;28;20426;-67
2021/01/15 08:17:00;;;;;;;1.20;1.00;;;21.80;48.90;;;;;;5016021;28;20419;-66
2021/01/15 08:19:27;;;;;;;1.00;0.80;;;21.80;48.90;;;;;;5016094;28;20185;-68
2021/01/15 08:21:54;;;;;;;1.00;0.70;;;21.80;48.90;;;;;;5015896;28;20922;-68
2021/01/15 08:24:22;;;;;;;1.03;0.80;;;21.70;48.90;;;;;;5016149;28;20455;-68
2021/01/15 08:26:52;;;;;;;1.10;0.80;;;21.80;48.90;;;;;;5015832;28;20426;-67
2021/01/15 08:29:23;;;;;;;1.20;0.90;;;21.80;49.50;;;;;;5016042;28;20410;-68
2021/01/15 08:31:50;;;;;;;1.53;0.90;;;21.80;48.90;;;;;;5014787;28;20965;-68
2021/01/15 08:34:19;;;;;;;1.10;0.90;;;21.80;48.90;;;;;;5014864;28;20407;-68
2021/01/15 08:36:48;;;;;;;1.20;0.83;;;21.80;48.90;;;;;;5015405;28;20443;-65
2021/01/15 08:39:14;;;;;;;1.20;0.90;;;21.80;48.90;;;;;;5015762;28;20415;-66
2021/01/15 08:41:40;;;;;;;1.20;0.90;;;21.80;48.90;;;;;;5015812;28;20435;-65
2021/01/15 08:44:07;;;;;;;1.20;0.90;;;21.80;48.90;;;;;;5015436;28;20223;-65
2021/01/15 08:46:34;;;;;;;1.23;0.97;;;21.80;48.90;;;;;;5015544;28;20921;-66
2021/01/15 08:49:06;;;;;;;1.07;0.97;;;21.80;48.90;;;;;;5015432;28;20434;-65
2021/01/15 08:51:35;;;;;;;1.00;0.80;;;21.80;48.90;;;;;;5015322;28;20423;-66
2021/01/15 08:54:05;;;;;;;1.20;0.90;;;21.80;48.90;;;;;;5014151;28;20439;-65
2021/01/15 08:56:35;;;;;;;1.40;1.00;;;21.80;48.90;;;;;;5014238;28;20893;-65
2021/01/15 08:59:06;;;;;;;1.00;0.90;;;21.80;48.90;;;;;;5015242;28;20909;-62
2021/01/15 09:01:35;;;;;;;1.33;0.97;;;21.80;49.00;;;;;;5015127;28;20446;-65
2021/01/15 09:04:04;;;;;;;1.90;1.20;;;21.80;48.90;;;;;;5013855;28;20451;-66
2021/01/15 09:06:31;;;;;;;1.40;1.00;;;21.80;48.90;;;;;;5015153;28;20411;-66
2021/01/15 09:08:58;;;;;;;1.10;0.90;;;21.80;48.90;;;;;;5015025;28;20430;-68
2021/01/15 09:11:36;;;;;;;1.27;1.00;;;21.90;49.00;;;;;;5014985;28;20534;-67
2021/01/15 09:14:03;;;;;;;1.23;1.13;;;21.80;48.90;;;;;;5014642;28;20554;-65
2021/01/15 09:16:29;;;;;;;1.20;1.03;;;21.80;48.90;;;;;;5012801;28;20426;-66
2021/01/15 09:19:07;;;;;;;1.50;0.90;;;21.80;48.90;;;;;;5013164;28;20404;-64
2021/01/15 09:21:33;;;;;;;1.30;1.13;;;21.80;48.90;;;;;;5014747;28;20461;-68
2021/01/15 09:23:58;;;;;;;1.10;0.87;;;21.80;49.00;;;;;;5014718;28;20462;-67
2021/01/15 09:26:24;;;;;;;1.30;1.00;;;21.80;49.50;;;;;;5014751;28;20172;-66
2021/01/15 09:28:50;;;;;;;1.23;1.13;;;21.80;48.90;;;;;;5014729;28;20752;-67
2021/01/15 09:31:17;;;;;;;1.10;1.00;;;21.80;48.90;;;;;;5014644;28;20156;-67
2021/01/15 09:33:49;;;;;;;0.80;0.67;;;21.80;48.90;;;;;;5014587;28;20176;-67
2021/01/15 09:36:25;;;;;;;1.30;1.10;;;21.80;48.90;;;;;;5014743;28;20406;-67
2021/01/15 09:38:53;;;;;;;1.57;1.20;;;21.80;49.00;;;;;;5014508;28;20424;-67
2021/01/15 09:41:18;;;;;;;1.13;1.03;;;21.80;49.10;;;;;;5014514;28;20431;-68
2021/01/15 09:43:44;;;;;;;1.10;0.93;;;21.80;49.00;;;;;;5014395;28;20964;-64
2021/01/15 09:46:27;;;;;;;1.20;0.90;;;21.80;49.00;;;;;;5014052;28;20339;-65
2021/01/15 09:48:55;;;;;;;1.40;1.00;;;21.80;49.10;;;;;;5013112;28;20600;-65
2021/01/15 09:51:23;;;;;;;1.20;0.93;;;21.80;49.10;;;;;;5014272;28;20506;-66
2021/01/15 09:53:48;;;;;;;1.63;0.90;;;21.80;49.10;;;;;;5014938;28;20877;-68
2021/01/15 09:56:24;;;;;;;1.00;0.90;;;21.70;49.10;;;;;;5016107;28;20418;-67
2021/01/15 09:58:49;;;;;;;1.10;0.90;;;21.80;49.70;;;;;;5014274;28;20183;-67
2021/01/15 10:01:15;;;;;;;1.30;1.00;;;21.70;49.10;;;;;;5014321;28;20893;-67
2021/01/15 10:03:41;;;;;;;2.00;1.00;;;21.70;49.20;;;;;;5014178;28;20224;-65
2021/01/15 10:06:06;;;;;;;1.70;1.27;;;21.70;49.10;;;;;;5012919;28;20184;-68
2021/01/15 10:08:32;;;;;;;1.07;0.90;;;21.70;49.10;;;;;;5014044;28;20251;-66
2021/01/15 10:10:57;;;;;;;1.27;0.80;;;21.70;49.10;;;;;;5014034;28;20208;-68
2021/01/15 10:13:23;;;;;;;1.20;0.90;;;21.70;49.10;;;;;;5013860;28;20227;-67
2021/01/15 10:15:48;;;;;;;1.37;1.20;;;21.70;49.20;;;;;;5014004;28;20172;-68
2021/01/15 10:18:14;;;;;;;1.30;0.97;;;21.70;49.20;;;;;;5013816;28;20203;-68
2021/01/15 10:20:44;;;;;;;1.03;0.90;;;21.70;49.20;;;;;;5014049;28;20242;-69
2021/01/15 10:23:10;;;;;;;1.07;0.93;;;21.70;49.20;;;;;;5013675;28;20200;-68
2021/01/15 10:25:36;;;;;;;1.00;0.80;;;21.70;49.20;;;;;;5013301;28;20431;-66
2021/01/15 10:28:02;;;;;;;1.23;1.00;;;21.70;49.30;;;;;;5013772;28;20408;-66
2021/01/15 10:30:28;;;;;;;1.00;0.73;;;21.70;49.30;;;;;;5013978;28;20168;-66
2021/01/15 10:32:54;;;;;;;1.87;1.10;;;21.70;49.30;;;;;;5012599;28;20521;-67
2021/01/15 10:35:20;;;;;;;1.50;1.00;;;21.70;49.30;;;;;;5013655;28;20211;-65
2021/01/15 10:37:45;;;;;;;1.20;0.80;;;21.70;49.30;;;;;;5013661;28;20181;-67
2021/01/15 10:40:11;;;;;;;1.00;0.90;;;21.70;49.30;;;;;;5013845;28;20430;-67
2021/01/15 10:42:42;;;;;;;0.97;0.80;;;21.70;49.30;;;;;;5013486;28;20231;-68
2021/01/15 10:45:08;;;;;;;1.00;0.83;;;21.70;49.30;;;;;;5013564;28;20239;-66
2021/01/15 10:47:34;;;;;;;1.20;1.07;;;21.70;49.30;;;;;;5013737;28;20495;-66
2021/01/15 10:49:59;;;;;;;1.20;0.80;;;21.70;49.30;;;;;;5013450;28;20541;-69
2021/01/15 10:52:25;;;;;;;1.57;0.87;;;21.70;49.30;;;;;;5013381;28;20554;-69
2021/01/15 10:54:50;;;;;;;1.13;0.83;;;21.60;49.20;;;;;;5013720;28;20229;-68
2021/01/15 10:57:16;;;;;;;1.10;0.90;;;21.60;49.20;;;;;;5012881;28;20230;-66
2021/01/15 10:59:42;;;;;;;1.30;0.80;;;21.70;49.30;;;;;;5013136;28;20165;-68
2021/01/15 11:02:08;;;;;;;1.80;0.87;;;21.70;49.40;;;;;;5012245;28;20338;-67
2021/01/15 11:04:34;;;;;;;1.33;0.87;;;21.60;49.30;;;;;;5013190;28;20546;-66
2021/01/15 11:07:00;;;;;;;1.00;0.90;;;21.60;49.20;;;;;;5013202;28;20171;-65
2021/01/15 11:09:26;;;;;;;1.00;0.90;;;21.60;49.80;;;;;;5013215;28;20183;-64
2021/01/15 11:11:52;;;;;;;1.33;1.07;;;21.70;49.40;;;;;;5012997;28;20450;-66
2021/01/15 11:14:19;;;;;;;1.27;1.00;;;21.60;49.30;;;;;;5013470;28;20176;-65
2021/01/15 11:16:46;;;;;;;1.20;0.90;;;21.60;49.30;;;;;;5011850;28;20427;-67
2021/01/15 11:19:13;;;;;;;1.10;0.93;;;21.60;49.30;;;;;;5013237;28;20474;-67
2021/01/15 11:21:39;;;;;;;1.50;1.00;;;21.60;49.30;;;;;;5013606;28;20555;-68
2021/01/15 11:24:06;;;;;;;1.10;0.80;;;21.60;49.30;;;;;;5013096;28;20486;-64
2021/01/15 11:26:32;;;;;;;1.10;0.90;;;21.60;49.30;;;;;;5011799;28;20416;-63
2021/01/15 11:29:00;;;;;;;1.47;1.10;;;21.60;49.30;;;;;;5013051;28;20414;-65
2021/01/15 11:31:30;;;;;;;1.30;0.90;;;21.60;49.30;;;;;;5013015;28;20434;-65
2021/01/15 11:33:56;;;;;;;1.00;0.80;;;21.60;49.30;;;;;;5013331;28;20506;-65
2021/01/15 11:36:23;;;;;;;1.20;0.83;;;21.60;49.40;;;;;;5013229;28;20411;-66
2021/01/15 11:38:52;;;;;;;1.20;0.80;;;21.60;49.30;;;;;;5013034;28;20419;-64
2021/01/15 11:41:17;;;;;;;0.90;0.80;;;21.60;49.30;;;;;;5013033;28;20439;-65
2021/01/15 11:43:44;;;;;;;1.10;0.80;;;21.60;49.30;;;;;;5012834;28;20494;-66
2021/01/15 11:46:10;;;;;;;1.30;0.90;;;21.60;49.30;;;;;;5013010;28;20152;-67
2021/01/15 11:48:37;;;;;;;1.03;0.90;;;21.60;49.30;;;;;;5012921;28;20542;-65
2021/01/15 11:51:05;;;;;;;0.97;0.70;;;21.60;49.30;;;;;;5012995;28;20937;-66
2021/01/15 11:53:34;;;;;;;1.10;0.90;;;21.60;49.30;;;;;;5013299;28;20828;-66
2021/01/15 11:56:02;;;;;;;1.10;0.90;;;21.60;49.30;;;;;;5012908;28;20408;-68
2021/01/15 11:58:28;;;;;;;1.07;0.70;;;21.60;49.30;;;;;;5012859;28;20419;-65
2021/01/15 12:00:55;;;;;;;1.30;0.90;;;21.60;49.30;;;;;;5012822;28;20403;-67
2021/01/15 12:03:21;;;;;;;1.50;0.97;;;21.60;49.30;;;;;;5012665;28;20455;-67
2021/01/15 12:05:49;;;;;;;1.50;0.97;;;21.60;49.30;;;;;;5012748;28;20404;-67
2021/01/15 12:08:19;;;;;;;0.90;0.73;;;21.60;49.30;;;;;;5011420;28;20416;-66
2021/01/15 12:10:49;;;;;;;0.97;0.73;;;21.60;49.30;;;;;;5014641;28;20422;-67
2021/01/15 12:13:15;;;;;;;1.77;0.90;;;21.60;49.30;;;;;;5016015;28;20474;-65
2021/01/15 12:15:41;;;;;;;1.00;0.87;;;21.60;49.30;;;;;;5016252;28;20466;-72
2021/01/15 12:18:06;;;;;;;1.10;0.80;;;21.70;49.40;;;;;;5016131;28;20812;-65
2021/01/15 12:20:38;;;;;;;1.20;0.80;;;21.60;49.30;;;;;;5016881;28;20208;-67
2021/01/15 12:23:04;;;;;;;1.00;0.80;;;21.60;49.30;;;;;;5015953;28;20283;-65
2021/01/15 12:25:30;;;;;;;0.90;0.70;;;21.60;49.30;;;;;;5015868;28;20526;-64
2021/01/15 12:27:56;;;;;;;1.03;0.90;;;21.60;49.30;;;;;;5015980;28;20543;-65
2021/01/15 12:30:23;;;;;;;1.20;0.80;;;21.60;49.30;;;;;;5014649;28;20184;-64
2021/01/15 12:32:50;;;;;;;1.00;0.80;;;21.60;49.30;;;;;;5014453;28;20437;-65
2021/01/15 12:35:19;;;;;;;1.10;0.80;;;21.60;49.30;;;;;;5015875;28;20936;-63
2021/01/15 12:37:45;;;;;;;1.03;0.80;;;21.60;49.30;;;;;;5015629;28;20426;-64
2021/01/15 12:40:12;;;;;;;1.30;1.00;;;21.60;49.30;;;;;;5015661;28;20411;-64
2021/01/15 12:42:37;;;;;;;1.10;1.00;;;21.60;49.30;;;;;;5013918;28;20238;-63
2021/01/15 12:45:04;;;;;;;0.90;0.70;;;21.60;49.30;;;;;;5015685;28;20411;-64
2021/01/15 12:47:29;;;;;;;1.10;0.83;;;21.60;49.30;;;;;;5014223;28;20203;-65
2021/01/15 12:49:55;;;;;;;1.37;1.10;;;21.60;49.30;;;;;;5015474;28;20411;-65
2021/01/15 12:52:21;;;;;;;2.00;1.50;;;21.60;49.30;;;;;;5013996;28;20201;-66
2021/01/15 12:54:46;;;;;;;2.47;1.77;;;21.60;49.40;;;;;;5015565;28;20533;-66